METAR Data
IDs: Format: Raw Decoded Include TAF

Data at: 2150 UTC 08 Aug 2020

KHYA 082122Z VRB04KT 10SM BKN015 M58/ A3014 RMK AO2 T1583
KHYA 082056Z 36007KT 10SM FEW027 M17/ A3013 RMK AO2 SLP205 T1167 50002 $
KHYA 081956Z COR 36008KT 10SM FEW023 25/20 A3014 RMK AO2 SLP208 T1489 $
KHYA 081857Z COR 04005KT 10SM CLR 25/20 A3014
KHYA 081856Z VRB06KT 10SM FEW022 SCT028 A3012 RMK AO2 SLPNO $
KHYA 081830Z VRB05KT 10SM BKN023 A3013 RMK AO2 $
KHYA 081756Z 35006KT 10SM CLR 25/20 A3013 RMK AO2 SLP202 T02500200 10250 21522 58012 $
KHYA 081720Z 03006KT 10SM FEW020 25/20 A3013 RMK AO2 T02500200 $
KHYA 081656Z 36009KT 10SM BKN018 24/22 A3014 RMK AO2 SLP206 T02390222
KHYA 081558Z COR 02007KT 10SM BKN010 24/22 A3016 RMK AO2 T02390222
KHYA 081551Z 10SM 21/20 A3016 RMK AO2 SLP213 T02110200 $
KHYA 081550Z 10SM 21/20 A3016 RMK AO2
KHYA 081456Z 02007KT 10SM OVC007 21/21 A3016 RMK AO2 CIG 007V010 SLP214 T02110211 53001 $
KHYA 081403Z COR 02005KT 9SM OVC005 21/21 A3016 RMK AO2 $
KHYA 081356Z 01006KT 4SM BR OVC003 20/20 A3016 RMK AO2 CIG 002V006 SLP213 T02000200 $
KHYA 081354Z 02006KT 5SM BR OVC003 20/20 A3016 RMK AO2 CIG 002V006 $
KHYA 081336Z 01005KT 2SM BR OVC002 20/20 A3016 RMK AO2 T02000200 $
KHYA 081325Z 02003KT 1 3/4SM BR OVC002 20/20 A3016 RMK AO2 T02000200 $
KHYA 081256Z 36004KT 2SM BR OVC003 20/20 A3016 RMK AO2 SLP213 T02000200 $
KHYA 081241Z 05005KT 4SM BR OVC002 A3016 RMK AO2 $
KHYA 081233Z 06005KT 2 1/2SM BR OVC002 A3016 RMK AO2 $
KHYA 081156Z 00000KT 1SM BR OVC002 21/20 A3016 RMK AO2 SLP212 T02060200 10206 20200 53010
KHYA 081145Z 03003KT 1SM BR OVC002 20/20 A3015 RMK AO2 T02000200
KHYA 081056Z 05003KT 1/2SM FG VV002 20/20 A3014 RMK AO2 SLP207 T02000200
KHYA 081003Z 02003KT 1/2SM FG VV002 20/19 A3013 RMK AO2 T02000194
KHYA 080956Z 00000KT 1SM BR OVC002 20/19 A3013 RMK AO2 SLP205 T02000194
KHYA 080925Z AUTO 02004KT 1 3/4SM BR OVC002 20/19 A3012 RMK AO2 T02000194
KHYA 080856Z AUTO 01004KT 2SM BR OVC002 20/19 A3013 RMK AO2 SLP202 T02000194 51002
KHYA 080826Z AUTO 03003KT 1 1/2SM BR OVC002 20/19 A3013 RMK AO2 T02000194
KHYA 080815Z AUTO 32003KT 2SM BR OVC002 20/19 A3013 RMK AO2 T02000194
KHYA 080756Z AUTO 33004KT 4SM BR OVC002 20/19 A3012 RMK AO2 SLP202 T02000194
KHYA 080716Z AUTO 04004KT 4SM BR OVC002 20/20 A3012 RMK AO2 T02000200
KHYA 080706Z AUTO 06005KT 2 1/2SM BR OVC002 20/20 A3012 RMK AO2 VIS 1 3/4V3 T02000200
KHYA 080656Z AUTO 03004KT 3SM BR OVC002 21/20 A3013 RMK AO2 SLP202 T02060200
KHYA 080556Z AUTO 08004KT 8SM OVC003 21/19 A3012 RMK AO2 SLP200 T02060194 10222 20194 58002
KHYA 080456Z AUTO 00000KT 10SM OVC003 21/19 A3014 RMK AO2 SLP207 T02060194 402500172
KHYA 080421Z AUTO 09003KT 10SM OVC004 20/19 A3013 RMK AO2 T02000194
KHYA 080356Z AUTO 08005KT 10SM BKN005 20/19 A3012 RMK AO2 SLP201 T02000189
KHYA 080349Z AUTO 07005KT 10SM SCT006 19/18 A3012 RMK AO2 T01940183
KHYA 080256Z AUTO 00000KT 10SM CLR 20/18 A3013 RMK AO2 SLP202 T02000178 58001
KHYA 080156Z 00000KT 10SM OVC046 21/18 A3015 RMK AO2 SLP211 T02060183
KHYA 080056Z 00000KT 10SM FEW065 21/19 A3015 RMK AO2 SLP212 T02110189
KHYA 072356Z 09003KT 10SM FEW012 OVC060 22/19 A3013 RMK AO2 SLP203 T02220194 10244 20222 53005
KHYA 072256Z 00000KT 10SM FEW016 23/20 A3012 RMK AO2 SLP200 T02330200
KHYA 072156Z 11005KT 10SM FEW016 23/19 A3012 RMK AO2 SLP200 T02280194
KHYA 072056Z 14005KT 10SM CLR 23/19 A3011 RMK AO2 SLP198 T02280194 58009
KHYA 071956Z 13004KT 10SM CLR 24/18 A3013 RMK AO2 SLP202 T02390183
KHYA 071856Z 11005KT 10SM CLR 24/19 A3014 RMK AO2 SLP207 T02390189
KHYA 071756Z AUTO VRB05KT 10SM CLR 24/19 A3014 RMK AO2 SLP207 T02390189 10250 20222 58008
KHYA 071656Z 09006KT 10SM CLR 24/13 A3015 RMK AO2 SLP211 T02440133
KHYA 071556Z 09006KT 10SM CLR 24/13 A3016 RMK AO2 SLP214 T02440133
KHYA 071456Z VRB06KT 10SM CLR 25/15 A3017 RMK AO2 SLP216 T02500150 51005
KHYA 071356Z 10006KT 10SM CLR 24/15 A3016 RMK AO2 SLP214 T02440150
KHYA 071256Z 13004KT 10SM BKN080 24/16 A3016 RMK AO2 SLP215 T02390156
KHYA 071156Z 05003KT 10SM CLR 22/18 A3015 RMK AO2 SLP210 T02220178 10222 20172 53010
KHYA 071056Z 00000KT 10SM CLR 21/18 A3013 RMK AO2 SLP203 T02060183 $
KHYA 070956Z 00000KT 10SM CLR 18/16 A3012 RMK AO2 SLP201 T01830161 $